• Join FlightAware (Why Join?)
  • Login
  • US Flag 
04:48PM EDT


 

Airport Tracker/Info


-or-


 

Live Flight TrackerFlight Track Log ✈ VH-SFK ✈ 05-Jun-2013 ✈ YSWG / WGA - YSBK / BWU

Flight Track Log - Related Links

Times and Time Zones

All times are in EDT time to prevent confusion due to time zone crossing. See the VH-SFK flight status page for this flight to view local times or setup timezone preferences in your user account.

Time Position Orientation Groundspeed Altitude Reporting Facility
EDT Latitude Longitude Course Direction KTS MPH feet Rate Location/Type
12:41AM -35.0019 148.2598 74° East 5,500  Level Aus ATC (Calculated)
12:42AM -34.8888 148.7469 77° East 111 128 7,700 1,260 Climbing Aus ATC (RADAR)
12:43AM -34.8829 148.7778 77° East 110 127 7,600  Descending Aus ATC (RADAR)
12:43AM -34.8798 148.7995 80° East 109 125 7,700  Climbing Aus ATC (RADAR)
12:45AM -34.8656 148.8640 75° East 112 129 7,700  Level Aus ATC (RADAR)
12:46AM -34.8618 148.9016 83° East 109 125 7,700 60 Level Aus ATC (RADAR)
12:47AM -34.8608 148.9141 84° East 110 127 7,800 120 Climbing Aus ATC (RADAR)
12:47AM -34.8600 148.9336 87° East 112 129 7,800 -240 Level Aus ATC (RADAR)
12:48AM -34.8577 148.9708 86° East 117 135 7,500 -180 Descending Aus ATC (RADAR)
12:49AM -34.8553 148.9958 83° East 112 129 7,600  Climbing Aus ATC (RADAR)
12:50AM -34.8524 149.0506 86° East 113 130 7,600  Level Aus ATC (RADAR)
12:50AM -34.8510 149.0635 83° East 114 131 7,600  Level Aus ATC (RADAR)
12:51AM -34.8493 149.0895 85° East 113 130 7,600  Level Aus ATC (RADAR)
12:52AM -34.8473 149.1245 86° East 112 129 7,600 60 Level Aus ATC (RADAR)
12:53AM -34.8454 149.1513 85° East 118 136 7,700 60 Climbing Aus ATC (RADAR)
12:53AM -34.8422 149.1861 84° East 121 139 7,700  Level Aus ATC (RADAR)
12:54AM -34.8395 149.2239 85° East 121 139 7,700  Level Aus ATC (RADAR)
12:55AM -34.8370 149.2514 84° East 121 139 7,700 -120 Level Aus ATC (RADAR)
12:55AM -34.8365 149.2652 87° East 121 139 7,600 -240 Descending Aus ATC (RADAR)
12:56AM -34.8344 149.2857 83° East 120 138 7,500 -120 Descending Aus ATC (RADAR)
12:57AM -34.8312 149.3231 84° East 119 137 7,500 -120 Level Aus ATC (RADAR)
12:57AM -34.8297 149.3439 85° East 121 139 7,400 60 Descending Aus ATC (RADAR)
12:58AM -34.8271 149.3843 86° East 118 136 7,600 180 Climbing Aus ATC (RADAR)
12:59AM -34.8266 149.3979 87° East 119 137 7,700  Climbing Aus ATC (RADAR)
12:59AM -34.8242 149.4355 86° East 120 138 7,600 -60 Descending Aus ATC (RADAR)
01:00AM -34.8220 149.4700 86° East 121 139 7,600  Level Aus ATC (RADAR)
01:01AM -34.8211 149.4869 86° East 119 137 7,600 60 Level Aus ATC (RADAR)
01:01AM -34.8183 149.5106 82° East 119 137 7,700 120 Climbing Aus ATC (RADAR)
01:02AM -34.8170 149.5477 87° East 118 136 7,800 60 Climbing Aus ATC (RADAR)
01:06AM -34.8102 149.7265 360° North 5,500 -720 Descending Aus ATC (Calculated)
01:07AM -34.8102 149.7265 173° South 4,700 -1,320 Descending Aus ATC (Calculated)
01:09AM -34.8485 149.7320 173° South  Level FlightAware Approximate
01:09AM -34.7623 149.7871 90° East 4,700  Level Aus ATC (Calculated)
01:09AM -34.7623 149.7871 216° Southwest 4,700  Level Aus ATC (Calculated)
01:10AM -34.8276 149.7290 353° North  Level FlightAware Approximate
01:11AM -34.7871 149.7557 226° Southwest  Level FlightAware Approximate
01:12AM -34.8018 149.7372 226° Southwest  Level FlightAware Approximate
01:13AM -34.8164 149.7187 226° Southwest  Level FlightAware Approximate
01:14AM -34.8021 149.7368 46° Northeast  Level FlightAware Approximate
01:15AM -34.7875 149.7552 46° Northeast  Level FlightAware Approximate
01:16AM -34.6643 149.9106 46° Northeast  Level FlightAware Approximate
01:17AM -34.6497 149.9290 46° Northeast  Level FlightAware Approximate
01:18AM -34.6351 149.9474 46° Northeast  Level FlightAware Approximate
01:19AM -34.6204 149.9658 46° Northeast  Level FlightAware Approximate
01:20AM -34.6058 149.9842 46° Northeast  Level FlightAware Approximate
01:21AM -34.5911 150.0026 46° Northeast  Level FlightAware Approximate
01:22AM -34.5765 150.0210 46° Northeast  Level FlightAware Approximate
01:22AM -34.4923 150.1264 226° Southwest 4,700  Level Aus ATC (Calculated)
01:23AM -34.5619 150.0394 46° Northeast  Level FlightAware Approximate
01:24AM -34.4771 150.1454 46° Northeast  Level FlightAware Approximate
01:25AM -34.4625 150.1637 46° Northeast  Level FlightAware Approximate
01:26AM -34.4478 150.1820 46° Northeast  Level FlightAware Approximate
01:27AM -34.4331 150.2003 46° Northeast  Level FlightAware Approximate
01:28AM -34.4185 150.2187 46° Northeast  Level FlightAware Approximate
01:29AM -34.4038 150.2370 46° Northeast  Level FlightAware Approximate
01:30AM -34.3891 150.2553 46° Northeast  Level FlightAware Approximate
01:31AM -34.3744 150.2735 46° Northeast  Level FlightAware Approximate
01:32AM -34.2666 150.4075 226° Southwest 4,700  Level Aus ATC (Calculated)
01:32AM -34.3597 150.2918 46° Northeast  Level FlightAware Approximate
01:32AM -34.2666 150.4075 46° Northeast 4,700  Level Aus ATC (Calculated)
01:33AM -34.2519 150.4258 46° Northeast  Level FlightAware Approximate
01:34AM -34.2372 150.4440 46° Northeast  Level FlightAware Approximate
01:35AM -34.2225 150.4622 46° Northeast  Level FlightAware Approximate
01:36AM -34.2077 150.4805 46° Northeast  Level FlightAware Approximate
01:37AM -34.1930 150.4987 46° Northeast  Level FlightAware Approximate
01:38AM -34.1783 150.5169 46° Northeast  Level FlightAware Approximate
01:39AM -34.1636 150.5351 46° Northeast  Level FlightAware Approximate
01:40AM -34.1489 150.5533 46° Northeast  Level FlightAware Approximate
01:41AM -34.1341 150.5715 46° Northeast  Level FlightAware Approximate
01:42AM -34.1194 150.5896 46° Northeast  Level FlightAware Approximate
01:43AM -34.1047 150.6078 46° Northeast  Level FlightAware Approximate
01:43AM -34.0402 150.6872 226° Southwest  Level Aus ATC (Calculated)
01:44AM -34.0900 150.6259 46° Northeast  Level FlightAware Approximate
01:45AM -34.0248 150.7180 59° Northeast  Level FlightAware Approximate
01:46AM -34.0357 150.6963 239° Southwest  Level FlightAware Approximate
01:47AM -34.0466 150.6745 239° Southwest  Level FlightAware Approximate
01:48AM -34.0357 150.6963 59° Northeast  Level FlightAware Approximate
01:49AM -34.0381 150.6926 65° Northeast  Level FlightAware Approximate
01:50AM -34.0293 150.7157 65° Northeast  Level FlightAware Approximate
01:51AM -34.0205 150.7387 65° Northeast  Level FlightAware Approximate
01:51AM -33.9244 150.9884 360° North  Level Aus ATC (Calculated)
01:51AM -33.9244 150.9884 245° Southwest  Level Aus ATC (Calculated)
01:52AM -34.0116 150.7618 65° Northeast  Level FlightAware Approximate
01:53AM -33.9244 150.9883 337° Northwest  Level Estimated
01:54AM -33.9244 150.9883 31° Northeast  Level Estimated
01:55AM -33.9244 150.9883 31° Northeast  Level Estimated
01:56AM -33.9244 150.9883 31° Northeast  Level Estimated
01:57AM -33.9244 150.9883 31° Northeast  Level Estimated